Cap Aiguades — FMII — position and weather

sailwx.info

Track history (hours):
 
Tides and Currents Weather Stations Pressure Air Temp Water Temp Dewpoint Dewpoint Depression Visibility Wind Speed Wind Dir Waves Ship Positions

Cap Aiguades

Last reported at 2014-Oct-25 23:34 UTC. Time now 2014-Oct-25 23:38 UTC.
Position N 43°24' E 004°59'.

Length 89 m; draft 3.3 m.

Type: Ship. MMSI: 228237800.

Date/timePositionNaut miles runAvg speedWind from/ knotsBaromVisibWave heightAir tempDewpointWater temp
2014-Oct-25 23:34N 43°24' E 004°59'0 0.0
2014-Oct-25 22:34N 43°24' E 004°59'0 0.0
2014-Oct-25 21:33N 43°24' E 004°59'0 0.0
2014-Oct-25 20:34N 43°24' E 004°59'3 3.1
2014-Oct-25 19:33N 43°24' E 004°55'3 3.3
2014-Oct-25 18:33N 43°25' E 004°51'0 0.0
2014-Oct-25 17:33N 43°25' E 004°51'0 0.0
2014-Oct-25 16:33N 43°25' E 004°51'0 0.0
2014-Oct-25 15:33N 43°25' E 004°51'0 0.0
2014-Oct-25 14:33N 43°25' E 004°51'0 0.0
2014-Oct-25 13:33N 43°25' E 004°51'2 1.6
2014-Oct-25 12:33N 43°26' E 004°52'0 0.0
2014-Oct-25 11:33N 43°26' E 004°52'1 1.2
2014-Oct-25 10:33N 43°25' E 004°53'1110.6
2014-Oct-25 09:30N 43°17' E 005°05'1111.2
2014-Oct-25 08:33N 43°18' E 005°19'2 1.7
2014-Oct-25 07:15N 43°19' E 005°22'0 0.0
2014-Oct-25 06:09N 43°19' E 005°22'1 2.3
2014-Oct-25 05:31N 43°18' E 005°21'9 9.6
2014-Oct-25 04:33N 43°18' E 005°08'9 8.7
2014-Oct-25 03:33N 43°24' E 004°59'0 0.1
2014-Oct-25 02:34N 43°24' E 004°59'0 0.0
2014-Oct-25 01:33N 43°24' E 004°59'0 0.0
2014-Oct-25 00:33N 43°24' E 004°59'0 0.0
2014-Oct-24 23:34N 43°24' E 004°59'0 0.0
2014-Oct-24 22:34N 43°24' E 004°59'0 0.0
2014-Oct-24 21:33N 43°24' E 004°59'0 0.0
2014-Oct-24 20:34N 43°24' E 004°59'0 0.0
2014-Oct-24 19:34N 43°24' E 004°59'0 0.0
2014-Oct-24 18:34N 43°24' E 004°59'0 0.0
2014-Oct-24 17:34N 43°24' E 004°59'0 0.0
2014-Oct-24 16:33N 43°24' E 004°59'0 0.0
2014-Oct-24 15:34N 43°24' E 004°59'0 0.0
2014-Oct-24 14:34N 43°24' E 004°59'7 6.9
2014-Oct-24 13:33N 43°25' E 004°50'0 0.0
2014-Oct-24 12:33N 43°25' E 004°50'0 0.0
2014-Oct-24 11:33N 43°25' E 004°50'0 0.0
2014-Oct-24 10:33N 43°25' E 004°50'0 0.0
2014-Oct-24 09:33N 43°25' E 004°50'0 0.0
2014-Oct-24 08:33N 43°25' E 004°50'0 0.0
2014-Oct-24 07:33N 43°25' E 004°50'0 0.0
2014-Oct-24 06:33N 43°25' E 004°50'4 4.3
2014-Oct-24 05:33N 43°24' E 004°56'3 2.7
2014-Oct-24 04:34N 43°24' E 004°59'0 0.0
2014-Oct-24 03:33N 43°24' E 004°59'0 0.0
2014-Oct-24 02:34N 43°24' E 004°59'0 0.0
2014-Oct-24 01:33N 43°24' E 004°59'0 0.0
2014-Oct-24 00:33N 43°24' E 004°59'0 0.0
2014-Oct-23 23:34N 43°24' E 004°59'0 0.0
2014-Oct-23 22:34N 43°24' E 004°59'0 0.0
2014-Oct-23 21:34N 43°24' E 004°59'0 0.0
2014-Oct-23 20:34N 43°24' E 004°59'0 0.0
2014-Oct-23 19:33N 43°24' E 004°59'0 0.0
2014-Oct-23 18:33N 43°24' E 004°59'1 1.3
2014-Oct-23 17:33N 43°22' E 004°59'9 8.7
2014-Oct-23 16:33N 43°14' E 005°02'41 9.7
2014-Oct-23 12:22N 43°03' E 005°56'4 4.5
2014-Oct-23 11:31N 43°07' E 005°56'0 0.0
2014-Oct-23 10:31N 43°07' E 005°56'0 0.0
2014-Oct-23 09:31N 43°07' E 005°56'0 0.1
2014-Oct-23 08:31N 43°07' E 005°56'0 0.0
2014-Oct-23 07:31N 43°07' E 005°56'0 0.0
2014-Oct-23 06:31N 43°07' E 005°56'1 1.5
2014-Oct-23 05:33N 43°06' E 005°54'0 0.0
2014-Oct-23 04:32N 43°06' E 005°54'0 0.0
2014-Oct-23 03:33N 43°06' E 005°54'0 0.0
2014-Oct-23 02:33N 43°06' E 005°54'0 0.0
2014-Oct-23 01:32N 43°06' E 005°54'0 0.0
2014-Oct-23 00:33N 43°06' E 005°54'0 0.0
2014-Oct-22 23:33N 43°06' E 005°54'0 0.0
2014-Oct-22 22:33N 43°06' E 005°54'0 0.0
2014-Oct-22 21:33N 43°06' E 005°54'0 0.0
2014-Oct-22 20:33N 43°06' E 005°54'0 0.0
2014-Oct-22 19:33N 43°06' E 005°54'0 0.0
2014-Oct-22 18:33N 43°06' E 005°54'0 0.0
2014-Oct-22 17:33N 43°06' E 005°54'0 0.0
2014-Oct-22 16:33N 43°06' E 005°54'2 1.5
2014-Oct-22 15:31N 43°07' E 005°56'0 0.0
2014-Oct-22 14:31N 43°07' E 005°56'0 0.1
2014-Oct-22 13:33N 43°07' E 005°56'0 0.0
2014-Oct-22 12:33N 43°07' E 005°56'0 0.0
2014-Oct-22 11:33N 43°07' E 005°56'1 0.6
2014-Oct-22 10:33N 43°07' E 005°55'39 7.1
2014-Oct-22 05:07N 43°10' E 005°03'611.0
2014-Oct-22 04:33N 43°16' E 004°60'7 7.5
2014-Oct-22 03:33N 43°24' E 004°59'0 0.0
2014-Oct-22 02:33N 43°24' E 004°59'0 0.0
2014-Oct-22 01:33N 43°24' E 004°59'0 0.0
2014-Oct-22 00:33N 43°24' E 004°59'0 0.0
2014-Oct-21 23:33N 43°24' E 004°59'0 0.0
2014-Oct-21 22:33N 43°24' E 004°59'0 0.0
2014-Oct-21 21:33N 43°24' E 004°59'0 0.0
2014-Oct-21 20:33N 43°24' E 004°59'0 0.0
2014-Oct-21 19:33N 43°24' E 004°59'0 0.0
2014-Oct-21 18:33N 43°24' E 004°59'0 0.0
2014-Oct-21 17:33N 43°24' E 004°59'0 0.0
2014-Oct-21 16:33N 43°24' E 004°59'0 0.0
2014-Oct-21 15:33N 43°24' E 004°59'0 0.0
2014-Oct-21 14:33N 43°24' E 004°59'1 0.6
2014-Oct-21 13:33N 43°24' E 004°59'0 0.0
2014-Oct-21 12:33N 43°24' E 004°59'0 0.0
2014-Oct-21 11:33N 43°24' E 004°59'0 0.0
2014-Oct-21 10:33N 43°24' E 004°59'6 6.0
2014-Oct-21 09:31N 43°25' E 004°51'0 0.1
2014-Oct-21 08:33N 43°25' E 004°51'0 0.0
2014-Oct-21 07:33N 43°25' E 004°51'0 0.0
2014-Oct-21 06:33N 43°25' E 004°51'0 0.0
2014-Oct-21 05:26N 43°25' E 004°51'0 0.0
2014-Oct-21 04:30N 43°25' E 004°51'2 2.1
2014-Oct-21 03:33N 43°24' E 004°53'4 4.5
2014-Oct-21 02:33N 43°24' E 004°59'0 0.0
2014-Oct-21 01:33N 43°24' E 004°59'0 0.0
2014-Oct-21 00:33N 43°24' E 004°59'0 0.0
2014-Oct-20 23:33N 43°24' E 004°59'0 0.0
2014-Oct-20 22:33N 43°24' E 004°59'0 0.0
2014-Oct-20 21:33N 43°24' E 004°59'0 0.0
2014-Oct-20 20:33N 43°24' E 004°59'0 0.0
2014-Oct-20 19:33N 43°24' E 004°59'0 0.0
2014-Oct-20 18:33N 43°24' E 004°59'3 2.6
2014-Oct-20 17:33N 43°24' E 004°56'4 3.7
2014-Oct-20 16:33N 43°25' E 004°51'0 0.0
2014-Oct-20 15:33N 43°25' E 004°51'0 0.0
2014-Oct-20 14:33N 43°25' E 004°51'0 0.0
2014-Oct-20 13:33N 43°25' E 004°51'0 0.0
2014-Oct-20 12:33N 43°25' E 004°51'0 0.0
2014-Oct-20 11:33N 43°25' E 004°51'2 1.9
2014-Oct-20 10:33N 43°24' E 004°53'4 4.4
2014-Oct-20 09:33N 43°24' E 004°59'0 0.0
2014-Oct-20 08:33N 43°24' E 004°59'0 0.0
2014-Oct-20 07:33N 43°24' E 004°59'0 0.0
2014-Oct-20 06:34N 43°24' E 004°59'0 0.0
2014-Oct-20 05:33N 43°24' E 004°59'0 0.0
2014-Oct-20 04:33N 43°24' E 004°59'0 0.0
2014-Oct-20 03:33N 43°24' E 004°59'7 6.3
2014-Oct-20 02:28N 43°25' E 004°50'0 0.0
2014-Oct-20 01:27N 43°25' E 004°50'0 0.0
2014-Oct-20 00:33N 43°25' E 004°50'0 0.0
2014-Oct-19 23:28N 43°25' E 004°50'0 0.0
2014-Oct-19 22:22N 43°25' E 004°50'0 0.0
2014-Oct-19 21:30N 43°25' E 004°50'0 0.0
2014-Oct-19 20:33N 43°25' E 004°50'0 0.0
2014-Oct-19 19:31N 43°25' E 004°50'0 0.0
2014-Oct-19 18:19N 43°25' E 004°50'0 0.0
2014-Oct-19 17:18N 43°25' E 004°50'0 0.0
2014-Oct-19 16:33N 43°25' E 004°50'5 5.0
2014-Oct-19 15:33N 43°24' E 004°57'2 2.0
2014-Oct-19 14:33N 43°24' E 004°59'0 0.0
2014-Oct-19 13:33N 43°24' E 004°59'0 0.0
2014-Oct-19 12:33N 43°24' E 004°59'0 0.0
2014-Oct-19 11:33N 43°24' E 004°59'0 0.0
2014-Oct-19 10:33N 43°24' E 004°59'0 0.0
2014-Oct-19 09:33N 43°24' E 004°59'0 0.0
2014-Oct-19 08:33N 43°24' E 004°59'0 0.0
2014-Oct-19 07:33N 43°24' E 004°59'0 0.0
2014-Oct-19 06:33N 43°24' E 004°59'0 0.0
2014-Oct-19 05:33N 43°24' E 004°59'0 0.0
2014-Oct-19 04:33N 43°24' E 004°59'1 0.5
2014-Oct-19 03:34N 43°24' E 004°59'0 0.1
2014-Oct-19 02:33N 43°24' E 004°59'0 0.0
2014-Oct-19 01:33N 43°24' E 004°59'0 0.0
2014-Oct-19 00:33N 43°24' E 004°59'0 0.0
2014-Oct-18 23:33N 43°24' E 004°59'0 0.0
2014-Oct-18 22:33N 43°24' E 004°59'0 0.0
2014-Oct-18 21:33N 43°24' E 004°59'0 0.0
2014-Oct-18 20:33N 43°24' E 004°59'0 0.0
2014-Oct-18 19:33N 43°24' E 004°59'0 0.0
2014-Oct-18 18:33N 43°24' E 004°59'0 0.0
2014-Oct-18 17:33N 43°24' E 004°59'0 0.0
2014-Oct-18 16:33N 43°24' E 004°59'0 0.0
2014-Oct-18 15:33N 43°24' E 004°59'0 0.0
2014-Oct-18 14:33N 43°24' E 004°59'6 6.2
2014-Oct-18 13:33N 43°25' E 004°51'0 0.5
2014-Oct-18 12:33N 43°25' E 004°50'0 0.0
2014-Oct-18 11:33N 43°25' E 004°50'0 0.0
2014-Oct-18 10:28N 43°25' E 004°50'0 0.0
2014-Oct-18 09:33N 43°25' E 004°50'0 0.0
2014-Oct-18 08:33N 43°25' E 004°50'0 0.0
2014-Oct-18 07:33N 43°25' E 004°50'0 0.0
2014-Oct-18 06:33N 43°25' E 004°50'0 0.0
2014-Oct-18 05:33N 43°25' E 004°50'6 6.1
2014-Oct-18 04:33N 43°23' E 004°58'1 0.7
2014-Oct-18 03:33N 43°24' E 004°59'0 0.0
2014-Oct-18 02:33N 43°24' E 004°59'0 0.0
2014-Oct-18 01:33N 43°24' E 004°59'0 0.0
2014-Oct-18 00:33N 43°24' E 004°59'0 0.0
2014-Oct-17 23:33N 43°24' E 004°59'0 0.0
2014-Oct-17 22:33N 43°24' E 004°59'0 0.0
2014-Oct-17 21:33N 43°24' E 004°59'0 0.0
2014-Oct-17 20:33N 43°24' E 004°59'0 0.0
2014-Oct-17 19:33N 43°24' E 004°59'0 0.0
2014-Oct-17 18:33N 43°24' E 004°59'0 0.0
2014-Oct-17 17:33N 43°24' E 004°59'0 0.0
2014-Oct-17 16:33N 43°24' E 004°59'1 0.5
2014-Oct-17 15:33N 43°24' E 004°60'0 0.0
2014-Oct-17 14:33N 43°24' E 004°60'0 0.0
2014-Oct-17 13:33N 43°24' E 004°60'1 0.5
2014-Oct-17 12:33N 43°24' E 004°59'0 0.0
2014-Oct-17 11:33N 43°24' E 004°59'0 0.0
2014-Oct-17 10:33N 43°24' E 004°59'0 0.0
2014-Oct-17 09:33N 43°24' E 004°59'0 0.0
2014-Oct-17 08:33N 43°24' E 004°59'0 0.0
2014-Oct-17 07:33N 43°24' E 004°59'0 0.0
2014-Oct-17 06:33N 43°24' E 004°59'0 0.0
2014-Oct-17 05:33N 43°24' E 004°59'0 0.0
2014-Oct-17 04:33N 43°24' E 004°59'1 0.6
2014-Oct-17 03:33N 43°24' E 004°59'0 0.0
2014-Oct-17 02:33N 43°24' E 004°59'0 0.0
2014-Oct-17 01:33N 43°24' E 004°59'0 0.0
2014-Oct-17 00:33N 43°24' E 004°59'0 0.0
2014-Oct-16 23:33N 43°24' E 004°59'0 0.0
2014-Oct-16 22:33N 43°24' E 004°59'0 0.0
2014-Oct-16 21:33N 43°24' E 004°59'0 0.0
2014-Oct-16 20:33N 43°24' E 004°59'0 0.0
2014-Oct-16 19:33N 43°24' E 004°59'0 0.0
2014-Oct-16 18:33N 43°24' E 004°59'0 0.0
2014-Oct-16 17:33N 43°24' E 004°59'0 0.0
2014-Oct-16 16:33N 43°24' E 004°59'0 0.0
2014-Oct-16 15:33N 43°24' E 004°59'0 0.0
2014-Oct-16 14:33N 43°24' E 004°59'0 0.0
2014-Oct-16 13:33N 43°24' E 004°59'0 0.0
2014-Oct-16 12:33N 43°24' E 004°59'0 0.0
2014-Oct-16 11:33N 43°24' E 004°59'0 0.0
2014-Oct-16 10:33N 43°24' E 004°59'0 0.0
2014-Oct-16 09:33N 43°24' E 004°59'0 0.0
2014-Oct-16 08:33N 43°24' E 004°59'0 0.0
2014-Oct-16 07:33N 43°24' E 004°59'0 0.0
2014-Oct-16 06:33N 43°24' E 004°59'0 0.0
2014-Oct-16 05:33N 43°24' E 004°59'0 0.0
2014-Oct-16 04:33N 43°24' E 004°59'0 0.0
2014-Oct-16 03:33N 43°24' E 004°59'0 0.0
2014-Oct-16 02:33N 43°24' E 004°59'0 0.0
2014-Oct-16 01:33N 43°24' E 004°59'0 0.0
2014-Oct-16 00:33N 43°24' E 004°59'0 0.0
2014-Oct-15 23:33N 43°24' E 004°59'  
Track history (hours):
 
Tides and Currents Weather Stations Pressure Air Temp Water Temp Dewpoint Dewpoint Depression Visibility Wind Speed Wind Dir Waves Ship Positions

Cap Aiguades

Last reported at 2014-Oct-25 23:34 UTC. Time now 2014-Oct-25 23:38 UTC.
Position N 43°24' E 004°59'.

Length 89 m; draft 3.3 m.

Type: Ship. MMSI: 228237800.

Date/timePositionNaut miles runAvg speedWind from/ knotsBaromVisibWave heightAir tempDewpointWater temp
2014-Oct-25 23:34N 43°24' E 004°59'0 0.0
2014-Oct-25 22:34N 43°24' E 004°59'0 0.0
2014-Oct-25 21:33N 43°24' E 004°59'0 0.0
2014-Oct-25 20:34N 43°24' E 004°59'3 3.1
2014-Oct-25 19:33N 43°24' E 004°55'3 3.3
2014-Oct-25 18:33N 43°25' E 004°51'0 0.0
2014-Oct-25 17:33N 43°25' E 004°51'0 0.0
2014-Oct-25 16:33N 43°25' E 004°51'0 0.0
2014-Oct-25 15:33N 43°25' E 004°51'0 0.0
2014-Oct-25 14:33N 43°25' E 004°51'0 0.0
2014-Oct-25 13:33N 43°25' E 004°51'2 1.6
2014-Oct-25 12:33N 43°26' E 004°52'0 0.0
2014-Oct-25 11:33N 43°26' E 004°52'1 1.2
2014-Oct-25 10:33N 43°25' E 004°53'1110.6
2014-Oct-25 09:30N 43°17' E 005°05'1111.2
2014-Oct-25 08:33N 43°18' E 005°19'2 1.7
2014-Oct-25 07:15N 43°19' E 005°22'0 0.0
2014-Oct-25 06:09N 43°19' E 005°22'1 2.3
2014-Oct-25 05:31N 43°18' E 005°21'9 9.6
2014-Oct-25 04:33N 43°18' E 005°08'9 8.7
2014-Oct-25 03:33N 43°24' E 004°59'0 0.1
2014-Oct-25 02:34N 43°24' E 004°59'0 0.0
2014-Oct-25 01:33N 43°24' E 004°59'0 0.0
2014-Oct-25 00:33N 43°24' E 004°59'0 0.0
2014-Oct-24 23:34N 43°24' E 004°59'0 0.0
2014-Oct-24 22:34N 43°24' E 004°59'0 0.0
2014-Oct-24 21:33N 43°24' E 004°59'0 0.0
2014-Oct-24 20:34N 43°24' E 004°59'0 0.0
2014-Oct-24 19:34N 43°24' E 004°59'0 0.0
2014-Oct-24 18:34N 43°24' E 004°59'0 0.0
2014-Oct-24 17:34N 43°24' E 004°59'0 0.0
2014-Oct-24 16:33N 43°24' E 004°59'0 0.0
2014-Oct-24 15:34N 43°24' E 004°59'0 0.0
2014-Oct-24 14:34N 43°24' E 004°59'7 6.9
2014-Oct-24 13:33N 43°25' E 004°50'0 0.0
2014-Oct-24 12:33N 43°25' E 004°50'0 0.0
2014-Oct-24 11:33N 43°25' E 004°50'0 0.0
2014-Oct-24 10:33N 43°25' E 004°50'0 0.0
2014-Oct-24 09:33N 43°25' E 004°50'0 0.0
2014-Oct-24 08:33N 43°25' E 004°50'0 0.0
2014-Oct-24 07:33N 43°25' E 004°50'0 0.0
2014-Oct-24 06:33N 43°25' E 004°50'4 4.3
2014-Oct-24 05:33N 43°24' E 004°56'3 2.7
2014-Oct-24 04:34N 43°24' E 004°59'0 0.0
2014-Oct-24 03:33N 43°24' E 004°59'0 0.0
2014-Oct-24 02:34N 43°24' E 004°59'0 0.0
2014-Oct-24 01:33N 43°24' E 004°59'0 0.0
2014-Oct-24 00:33N 43°24' E 004°59'0 0.0
2014-Oct-23 23:34N 43°24' E 004°59'0 0.0
2014-Oct-23 22:34N 43°24' E 004°59'0 0.0
2014-Oct-23 21:34N 43°24' E 004°59'0 0.0
2014-Oct-23 20:34N 43°24' E 004°59'0 0.0
2014-Oct-23 19:33N 43°24' E 004°59'0 0.0
2014-Oct-23 18:33N 43°24' E 004°59'1 1.3
2014-Oct-23 17:33N 43°22' E 004°59'9 8.7
2014-Oct-23 16:33N 43°14' E 005°02'41 9.7
2014-Oct-23 12:22N 43°03' E 005°56'4 4.5
2014-Oct-23 11:31N 43°07' E 005°56'0 0.0
2014-Oct-23 10:31N 43°07' E 005°56'0 0.0
2014-Oct-23 09:31N 43°07' E 005°56'0 0.1
2014-Oct-23 08:31N 43°07' E 005°56'0 0.0
2014-Oct-23 07:31N 43°07' E 005°56'0 0.0
2014-Oct-23 06:31N 43°07' E 005°56'1 1.5
2014-Oct-23 05:33N 43°06' E 005°54'0 0.0
2014-Oct-23 04:32N 43°06' E 005°54'0 0.0
2014-Oct-23 03:33N 43°06' E 005°54'0 0.0
2014-Oct-23 02:33N 43°06' E 005°54'0 0.0
2014-Oct-23 01:32N 43°06' E 005°54'0 0.0
2014-Oct-23 00:33N 43°06' E 005°54'0 0.0
2014-Oct-22 23:33N 43°06' E 005°54'0 0.0
2014-Oct-22 22:33N 43°06' E 005°54'0 0.0
2014-Oct-22 21:33N 43°06' E 005°54'0 0.0
2014-Oct-22 20:33N 43°06' E 005°54'0 0.0
2014-Oct-22 19:33N 43°06' E 005°54'0 0.0
2014-Oct-22 18:33N 43°06' E 005°54'0 0.0
2014-Oct-22 17:33N 43°06' E 005°54'0 0.0
2014-Oct-22 16:33N 43°06' E 005°54'2 1.5
2014-Oct-22 15:31N 43°07' E 005°56'0 0.0
2014-Oct-22 14:31N 43°07' E 005°56'0 0.1
2014-Oct-22 13:33N 43°07' E 005°56'0 0.0
2014-Oct-22 12:33N 43°07' E 005°56'0 0.0
2014-Oct-22 11:33N 43°07' E 005°56'1 0.6
2014-Oct-22 10:33N 43°07' E 005°55'39 7.1
2014-Oct-22 05:07N 43°10' E 005°03'611.0
2014-Oct-22 04:33N 43°16' E 004°60'7 7.5
2014-Oct-22 03:33N 43°24' E 004°59'0 0.0
2014-Oct-22 02:33N 43°24' E 004°59'0 0.0
2014-Oct-22 01:33N 43°24' E 004°59'0 0.0
2014-Oct-22 00:33N 43°24' E 004°59'0 0.0
2014-Oct-21 23:33N 43°24' E 004°59'0 0.0
2014-Oct-21 22:33N 43°24' E 004°59'0 0.0
2014-Oct-21 21:33N 43°24' E 004°59'0 0.0
2014-Oct-21 20:33N 43°24' E 004°59'0 0.0
2014-Oct-21 19:33N 43°24' E 004°59'0 0.0
2014-Oct-21 18:33N 43°24' E 004°59'0 0.0
2014-Oct-21 17:33N 43°24' E 004°59'0 0.0
2014-Oct-21 16:33N 43°24' E 004°59'0 0.0
2014-Oct-21 15:33N 43°24' E 004°59'0 0.0
2014-Oct-21 14:33N 43°24' E 004°59'1 0.6
2014-Oct-21 13:33N 43°24' E 004°59'0 0.0
2014-Oct-21 12:33N 43°24' E 004°59'0 0.0
2014-Oct-21 11:33N 43°24' E 004°59'0 0.0
2014-Oct-21 10:33N 43°24' E 004°59'6 6.0
2014-Oct-21 09:31N 43°25' E 004°51'0 0.1
2014-Oct-21 08:33N 43°25' E 004°51'0 0.0
2014-Oct-21 07:33N 43°25' E 004°51'0 0.0
2014-Oct-21 06:33N 43°25' E 004°51'0 0.0
2014-Oct-21 05:26N 43°25' E 004°51'0 0.0
2014-Oct-21 04:30N 43°25' E 004°51'2 2.1
2014-Oct-21 03:33N 43°24' E 004°53'4 4.5
2014-Oct-21 02:33N 43°24' E 004°59'0 0.0
2014-Oct-21 01:33N 43°24' E 004°59'0 0.0
2014-Oct-21 00:33N 43°24' E 004°59'0 0.0
2014-Oct-20 23:33N 43°24' E 004°59'0 0.0
2014-Oct-20 22:33N 43°24' E 004°59'0 0.0
2014-Oct-20 21:33N 43°24' E 004°59'0 0.0
2014-Oct-20 20:33N 43°24' E 004°59'0 0.0
2014-Oct-20 19:33N 43°24' E 004°59'0 0.0
2014-Oct-20 18:33N 43°24' E 004°59'3 2.6
2014-Oct-20 17:33N 43°24' E 004°56'4 3.7
2014-Oct-20 16:33N 43°25' E 004°51'0 0.0
2014-Oct-20 15:33N 43°25' E 004°51'0 0.0
2014-Oct-20 14:33N 43°25' E 004°51'0 0.0
2014-Oct-20 13:33N 43°25' E 004°51'0 0.0
2014-Oct-20 12:33N 43°25' E 004°51'0 0.0
2014-Oct-20 11:33N 43°25' E 004°51'2 1.9
2014-Oct-20 10:33N 43°24' E 004°53'4 4.4
2014-Oct-20 09:33N 43°24' E 004°59'0 0.0
2014-Oct-20 08:33N 43°24' E 004°59'0 0.0
2014-Oct-20 07:33N 43°24' E 004°59'0 0.0
2014-Oct-20 06:34N 43°24' E 004°59'0 0.0
2014-Oct-20 05:33N 43°24' E 004°59'0 0.0
2014-Oct-20 04:33N 43°24' E 004°59'0 0.0
2014-Oct-20 03:33N 43°24' E 004°59'7 6.3
2014-Oct-20 02:28N 43°25' E 004°50'0 0.0
2014-Oct-20 01:27N 43°25' E 004°50'0 0.0
2014-Oct-20 00:33N 43°25' E 004°50'0 0.0
2014-Oct-19 23:28N 43°25' E 004°50'0 0.0
2014-Oct-19 22:22N 43°25' E 004°50'0 0.0
2014-Oct-19 21:30N 43°25' E 004°50'0 0.0
2014-Oct-19 20:33N 43°25' E 004°50'0 0.0
2014-Oct-19 19:31N 43°25' E 004°50'0 0.0
2014-Oct-19 18:19N 43°25' E 004°50'0 0.0
2014-Oct-19 17:18N 43°25' E 004°50'0 0.0
2014-Oct-19 16:33N 43°25' E 004°50'5 5.0
2014-Oct-19 15:33N 43°24' E 004°57'2 2.0
2014-Oct-19 14:33N 43°24' E 004°59'0 0.0
2014-Oct-19 13:33N 43°24' E 004°59'0 0.0
2014-Oct-19 12:33N 43°24' E 004°59'0 0.0
2014-Oct-19 11:33N 43°24' E 004°59'0 0.0
2014-Oct-19 10:33N 43°24' E 004°59'0 0.0
2014-Oct-19 09:33N 43°24' E 004°59'0 0.0
2014-Oct-19 08:33N 43°24' E 004°59'0 0.0
2014-Oct-19 07:33N 43°24' E 004°59'0 0.0
2014-Oct-19 06:33N 43°24' E 004°59'0 0.0
2014-Oct-19 05:33N 43°24' E 004°59'0 0.0
2014-Oct-19 04:33N 43°24' E 004°59'1 0.5
2014-Oct-19 03:34N 43°24' E 004°59'0 0.1
2014-Oct-19 02:33N 43°24' E 004°59'0 0.0
2014-Oct-19 01:33N 43°24' E 004°59'0 0.0
2014-Oct-19 00:33N 43°24' E 004°59'0 0.0
2014-Oct-18 23:33N 43°24' E 004°59'0 0.0
2014-Oct-18 22:33N 43°24' E 004°59'0 0.0
2014-Oct-18 21:33N 43°24' E 004°59'0 0.0
2014-Oct-18 20:33N 43°24' E 004°59'0 0.0
2014-Oct-18 19:33N 43°24' E 004°59'0 0.0
2014-Oct-18 18:33N 43°24' E 004°59'0 0.0
2014-Oct-18 17:33N 43°24' E 004°59'0 0.0
2014-Oct-18 16:33N 43°24' E 004°59'0 0.0
2014-Oct-18 15:33N 43°24' E 004°59'0 0.0
2014-Oct-18 14:33N 43°24' E 004°59'6 6.2
2014-Oct-18 13:33N 43°25' E 004°51'0 0.5
2014-Oct-18 12:33N 43°25' E 004°50'0 0.0
2014-Oct-18 11:33N 43°25' E 004°50'0 0.0
2014-Oct-18 10:28N 43°25' E 004°50'0 0.0
2014-Oct-18 09:33N 43°25' E 004°50'0 0.0
2014-Oct-18 08:33N 43°25' E 004°50'0 0.0
2014-Oct-18 07:33N 43°25' E 004°50'0 0.0
2014-Oct-18 06:33N 43°25' E 004°50'0 0.0
2014-Oct-18 05:33N 43°25' E 004°50'6 6.1
2014-Oct-18 04:33N 43°23' E 004°58'1 0.7
2014-Oct-18 03:33N 43°24' E 004°59'0 0.0
2014-Oct-18 02:33N 43°24' E 004°59'0 0.0
2014-Oct-18 01:33N 43°24' E 004°59'0 0.0
2014-Oct-18 00:33N 43°24' E 004°59'0 0.0
2014-Oct-17 23:33N 43°24' E 004°59'0 0.0
2014-Oct-17 22:33N 43°24' E 004°59'0 0.0
2014-Oct-17 21:33N 43°24' E 004°59'0 0.0
2014-Oct-17 20:33N 43°24' E 004°59'0 0.0
2014-Oct-17 19:33N 43°24' E 004°59'0 0.0
2014-Oct-17 18:33N 43°24' E 004°59'0 0.0
2014-Oct-17 17:33N 43°24' E 004°59'0 0.0
2014-Oct-17 16:33N 43°24' E 004°59'1 0.5
2014-Oct-17 15:33N 43°24' E 004°60'0 0.0
2014-Oct-17 14:33N 43°24' E 004°60'0 0.0
2014-Oct-17 13:33N 43°24' E 004°60'1 0.5
2014-Oct-17 12:33N 43°24' E 004°59'0 0.0
2014-Oct-17 11:33N 43°24' E 004°59'0 0.0
2014-Oct-17 10:33N 43°24' E 004°59'0 0.0
2014-Oct-17 09:33N 43°24' E 004°59'0 0.0
2014-Oct-17 08:33N 43°24' E 004°59'0 0.0
2014-Oct-17 07:33N 43°24' E 004°59'0 0.0
2014-Oct-17 06:33N 43°24' E 004°59'0 0.0
2014-Oct-17 05:33N 43°24' E 004°59'0 0.0
2014-Oct-17 04:33N 43°24' E 004°59'1 0.6
2014-Oct-17 03:33N 43°24' E 004°59'0 0.0
2014-Oct-17 02:33N 43°24' E 004°59'0 0.0
2014-Oct-17 01:33N 43°24' E 004°59'0 0.0
2014-Oct-17 00:33N 43°24' E 004°59'0 0.0
2014-Oct-16 23:33N 43°24' E 004°59'0 0.0
2014-Oct-16 22:33N 43°24' E 004°59'0 0.0
2014-Oct-16 21:33N 43°24' E 004°59'0 0.0
2014-Oct-16 20:33N 43°24' E 004°59'0 0.0
2014-Oct-16 19:33N 43°24' E 004°59'0 0.0
2014-Oct-16 18:33N 43°24' E 004°59'0 0.0
2014-Oct-16 17:33N 43°24' E 004°59'0 0.0
2014-Oct-16 16:33N 43°24' E 004°59'0 0.0
2014-Oct-16 15:33N 43°24' E 004°59'0 0.0
2014-Oct-16 14:33N 43°24' E 004°59'0 0.0
2014-Oct-16 13:33N 43°24' E 004°59'0 0.0
2014-Oct-16 12:33N 43°24' E 004°59'0 0.0
2014-Oct-16 11:33N 43°24' E 004°59'0 0.0
2014-Oct-16 10:33N 43°24' E 004°59'0 0.0
2014-Oct-16 09:33N 43°24' E 004°59'0 0.0
2014-Oct-16 08:33N 43°24' E 004°59'0 0.0
2014-Oct-16 07:33N 43°24' E 004°59'0 0.0
2014-Oct-16 06:33N 43°24' E 004°59'0 0.0
2014-Oct-16 05:33N 43°24' E 004°59'0 0.0
2014-Oct-16 04:33N 43°24' E 004°59'0 0.0
2014-Oct-16 03:33N 43°24' E 004°59'0 0.0
2014-Oct-16 02:33N 43°24' E 004°59'0 0.0
2014-Oct-16 01:33N 43°24' E 004°59'0 0.0
2014-Oct-16 00:33N 43°24' E 004°59'0 0.0
2014-Oct-15 23:33N 43°24' E 004°59'  

Dump ship's entire track history